createdAt,value
2018-06-29T00:02:14.808Z,21.50
2018-06-29T00:04:42.945Z,21.40
2018-06-29T00:07:11.340Z,21.30
2018-06-29T00:09:39.534Z,21.30
2018-06-29T00:12:08.478Z,21.40
2018-06-29T00:14:37.037Z,21.40
2018-06-29T00:17:05.170Z,21.50
2018-06-29T00:19:33.284Z,21.40
2018-06-29T00:22:01.439Z,21.20
2018-06-29T00:24:29.561Z,21.20
2018-06-29T00:26:57.677Z,21.30
2018-06-29T00:29:25.856Z,21.40
2018-06-29T00:31:53.985Z,21.30
2018-06-29T00:34:22.105Z,21.20
2018-06-29T00:36:50.237Z,21.10
2018-06-29T00:39:18.352Z,21.20
2018-06-29T00:41:46.481Z,21.30
2018-06-29T00:44:14.628Z,21.40
2018-06-29T00:46:42.753Z,21.40
2018-06-29T00:49:10.876Z,21.50
2018-06-29T00:51:39.493Z,21.50
2018-06-29T00:54:07.625Z,21.50
2018-06-29T00:56:35.776Z,21.40
2018-06-29T00:59:03.961Z,21.40
2018-06-29T01:01:32.107Z,21.50
2018-06-29T01:04:00.225Z,21.50
2018-06-29T01:06:28.376Z,21.50
2018-06-29T01:08:56.514Z,21.50
2018-06-29T01:11:24.664Z,21.60
2018-06-29T01:13:52.976Z,21.60
2018-06-29T01:16:21.094Z,21.60
2018-06-29T01:18:49.213Z,21.60
2018-06-29T01:21:17.656Z,21.50
2018-06-29T01:23:45.772Z,21.50
2018-06-29T01:26:13.885Z,21.60
2018-06-29T01:28:42.091Z,21.60
2018-06-29T01:31:10.144Z,21.70
2018-06-29T01:33:38.271Z,21.60
2018-06-29T01:36:06.703Z,21.60
2018-06-29T01:38:34.824Z,21.60
2018-06-29T01:41:02.945Z,21.60
2018-06-29T01:43:31.073Z,21.60
2018-06-29T01:45:59.824Z,21.50
2018-06-29T01:48:28.227Z,21.50
2018-06-29T01:50:56.348Z,21.50
2018-06-29T01:53:24.466Z,21.50
2018-06-29T01:55:52.582Z,21.50
2018-06-29T01:58:20.781Z,21.60
2018-06-29T02:00:48.907Z,21.50
2018-06-29T02:03:17.029Z,21.50
2018-06-29T02:05:45.160Z,21.50
2018-06-29T02:08:13.276Z,21.60
2018-06-29T02:10:41.393Z,21.50
2018-06-29T02:13:09.537Z,21.50
2018-06-29T02:15:38.521Z,21.60
2018-06-29T02:18:06.712Z,21.50
2018-06-29T02:20:34.910Z,21.50
2018-06-29T02:23:03.029Z,21.60
2018-06-29T02:25:31.181Z,21.50
2018-06-29T02:27:59.312Z,21.50
2018-06-29T02:30:27.441Z,21.50
2018-06-29T02:32:55.552Z,21.50
2018-06-29T02:35:23.693Z,21.50
2018-06-29T02:37:51.817Z,21.40
2018-06-29T02:40:19.956Z,21.40
2018-06-29T02:42:48.089Z,21.30
2018-06-29T02:45:16.212Z,21.30
2018-06-29T02:47:44.378Z,21.40
2018-06-29T02:50:12.477Z,21.30
2018-06-29T02:52:40.608Z,21.30
2018-06-29T02:55:08.799Z,21.30
2018-06-29T02:57:36.948Z,21.30
2018-06-29T03:00:06.153Z,21.30
2018-06-29T03:02:34.272Z,21.30
2018-06-29T03:05:02.769Z,21.30
2018-06-29T03:07:30.889Z,21.20
2018-06-29T03:09:59.015Z,21.20
2018-06-29T03:12:27.166Z,21.20
2018-06-29T03:14:55.273Z,21.20
2018-06-29T03:17:24.192Z,21.20
2018-06-29T03:19:52.452Z,21.20
2018-06-29T03:22:20.578Z,21.20
2018-06-29T03:24:48.732Z,21.10
2018-06-29T03:27:17.157Z,21.10
2018-06-29T03:29:46.284Z,21.10
2018-06-29T03:32:14.503Z,21.20
2018-06-29T03:34:42.904Z,21.10
2018-06-29T03:37:11.181Z,21.10
2018-06-29T03:39:39.292Z,21.10
2018-06-29T03:42:07.434Z,21.10
2018-06-29T03:44:35.545Z,21.00
2018-06-29T03:47:03.931Z,21.00
2018-06-29T03:49:32.144Z,21.00
2018-06-29T03:52:00.895Z,21.00
2018-06-29T03:54:29.032Z,21.10
2018-06-29T03:56:57.158Z,21.10
2018-06-29T03:59:25.280Z,21.10
2018-06-29T04:01:53.405Z,21.00
2018-06-29T04:04:21.545Z,21.10
2018-06-29T04:06:49.675Z,21.10
2018-06-29T04:09:17.776Z,21.20
2018-06-29T04:11:46.486Z,21.10
2018-06-29T04:14:14.541Z,21.00
2018-06-29T04:16:42.668Z,21.00
2018-06-29T04:19:11.376Z,21.00
2018-06-29T04:21:39.500Z,21.00
2018-06-29T04:24:07.624Z,21.10
2018-06-29T04:26:35.800Z,21.00
2018-06-29T04:29:03.882Z,21.10
2018-06-29T04:31:32.213Z,21.10
2018-06-29T04:34:00.920Z,21.10
2018-06-29T04:36:29.060Z,21.10
2018-06-29T04:38:57.176Z,21.10
2018-06-29T04:41:25.385Z,21.10
2018-06-29T04:43:53.729Z,21.10
2018-06-29T04:46:21.850Z,21.10
2018-06-29T04:48:49.992Z,21.00
2018-06-29T04:51:18.120Z,21.10
2018-06-29T04:53:46.241Z,21.10
2018-06-29T04:56:14.974Z,21.20
2018-06-29T04:58:43.100Z,21.20
2018-06-29T05:01:11.227Z,21.20
2018-06-29T05:03:39.384Z,21.40
2018-06-29T05:06:07.523Z,21.40
2018-06-29T05:08:35.628Z,21.40
2018-06-29T05:11:03.766Z,21.40
2018-06-29T05:13:31.882Z,21.30
2018-06-29T05:16:00.031Z,21.30
2018-06-29T05:18:28.148Z,21.20
2018-06-29T05:20:56.372Z,21.30
2018-06-29T05:23:24.694Z,21.30
2018-06-29T05:25:52.830Z,21.30
2018-06-29T05:28:20.957Z,21.30
2018-06-29T05:30:49.077Z,21.40
2018-06-29T05:33:17.264Z,21.30
2018-06-29T05:35:45.400Z,21.30
2018-06-29T05:38:13.505Z,21.30
2018-06-29T05:40:42.150Z,21.40
2018-06-29T05:43:10.279Z,21.50
2018-06-29T05:45:38.389Z,21.50
2018-06-29T05:48:06.526Z,21.60
2018-06-29T05:50:34.634Z,21.70
2018-06-29T05:53:02.777Z,21.70
2018-06-29T05:55:30.909Z,21.80
2018-06-29T05:57:59.024Z,21.70
2018-06-29T06:00:27.152Z,21.90
2018-06-29T06:02:55.321Z,22.10
2018-06-29T06:05:23.463Z,22.00
2018-06-29T06:07:51.569Z,22.10
2018-06-29T06:10:19.736Z,22.10
2018-06-29T06:12:47.861Z,22.20
2018-06-29T06:15:15.981Z,22.20
2018-06-29T06:17:44.117Z,22.30
2018-06-29T06:20:14.297Z,22.40
2018-06-29T06:22:42.509Z,22.50
2018-06-29T06:25:10.656Z,22.60
2018-06-29T06:27:38.768Z,22.60
2018-06-29T06:30:06.985Z,22.80
2018-06-29T06:32:35.107Z,22.90
2018-06-29T06:35:03.245Z,23.00
2018-06-29T06:37:31.376Z,23.00
2018-06-29T06:39:59.509Z,23.10
2018-06-29T06:42:27.685Z,23.20
2018-06-29T06:44:55.841Z,23.20
2018-06-29T06:47:23.956Z,23.30
2018-06-29T06:49:52.081Z,23.40
2018-06-29T06:52:20.940Z,23.60
2018-06-29T06:54:49.082Z,23.70
2018-06-29T06:57:17.219Z,23.70
2018-06-29T06:59:45.344Z,23.70
2018-06-29T07:02:14.422Z,23.80
2018-06-29T07:04:42.552Z,24.00
2018-06-29T07:07:21.993Z,24.10
2018-06-29T07:09:50.126Z,24.20
2018-06-29T07:12:18.259Z,24.20
2018-06-29T07:14:46.404Z,24.20
2018-06-29T07:17:14.529Z,24.40
2018-06-29T07:19:42.654Z,24.60
2018-06-29T07:22:10.780Z,24.70
2018-06-29T07:24:38.902Z,24.70
2018-06-29T07:27:07.031Z,24.80
2018-06-29T07:29:35.178Z,24.80
2018-06-29T07:32:03.305Z,24.80
2018-06-29T07:34:31.429Z,24.90
2018-06-29T07:36:59.564Z,24.90
2018-06-29T07:39:27.689Z,24.70
2018-06-29T07:41:55.813Z,24.40
2018-06-29T07:44:23.952Z,24.50
2018-06-29T07:46:52.067Z,24.40
2018-06-29T07:49:20.191Z,24.30
2018-06-29T07:51:48.609Z,24.20
2018-06-29T07:54:16.725Z,24.40
2018-06-29T07:56:44.830Z,24.60
2018-06-29T07:59:13.193Z,24.60
2018-06-29T08:01:41.330Z,24.60
2018-06-29T08:04:09.447Z,24.80
2018-06-29T08:06:37.698Z,25.10
2018-06-29T08:09:08.497Z,25.40
2018-06-29T08:11:36.651Z,25.60
2018-06-29T08:14:04.784Z,25.90
2018-06-29T08:16:32.921Z,26.30
2018-06-29T08:19:01.054Z,26.80
2018-06-29T08:21:29.190Z,26.70
2018-06-29T08:23:57.317Z,26.50
2018-06-29T08:26:26.986Z,26.40
2018-06-29T08:28:55.142Z,26.40
2018-06-29T08:31:23.261Z,25.90
2018-06-29T08:33:51.421Z,26.30
2018-06-29T08:36:19.545Z,26.10
2018-06-29T08:38:47.671Z,25.90
2018-06-29T08:41:15.805Z,26.60
2018-06-29T08:43:43.920Z,26.90
2018-06-29T08:46:12.052Z,26.40
2018-06-29T08:48:40.181Z,27.10
2018-06-29T08:51:08.350Z,27.00
2018-06-29T08:53:36.481Z,27.00
2018-06-29T08:56:05.137Z,27.50
2018-06-29T08:58:33.257Z,27.90
2018-06-29T09:01:01.396Z,27.80
2018-06-29T09:03:29.681Z,27.80
2018-06-29T09:05:57.792Z,27.60
2018-06-29T09:08:25.929Z,28.20
2018-06-29T09:11:03.929Z,28.10
2018-06-29T09:13:32.041Z,28.30
2018-06-29T09:16:00.168Z,27.60
2018-06-29T09:18:28.625Z,26.90
2018-06-29T09:20:56.761Z,27.00
2018-06-29T09:23:24.891Z,27.10
2018-06-29T09:25:53.021Z,26.90
2018-06-29T09:28:21.136Z,26.90
2018-06-29T09:30:49.249Z,26.80
2018-06-29T09:33:17.386Z,26.90
2018-06-29T09:35:45.510Z,27.40
2018-06-29T09:38:13.627Z,27.70
2018-06-29T09:40:41.793Z,27.70
2018-06-29T09:43:09.920Z,27.90
2018-06-29T09:45:38.029Z,28.10
2018-06-29T09:48:06.373Z,28.20
2018-06-29T09:50:34.306Z,28.30
2018-06-29T09:53:02.532Z,28.40
2018-06-29T09:55:30.669Z,28.00
2018-06-29T09:57:58.788Z,28.10
2018-06-29T10:00:31.799Z,28.20
2018-06-29T10:03:00.521Z,28.40
2018-06-29T10:05:29.113Z,28.50
2018-06-29T10:07:57.338Z,28.60
2018-06-29T10:10:25.457Z,28.50
2018-06-29T10:12:54.756Z,28.40
2018-06-29T10:15:22.890Z,28.70
2018-06-29T10:17:51.027Z,28.80
2018-06-29T10:20:19.252Z,28.60
2018-06-29T10:22:47.329Z,28.80
2018-06-29T10:25:15.513Z,29.40
2018-06-29T10:27:43.573Z,29.30
2018-06-29T10:30:11.717Z,29.30
2018-06-29T10:32:39.828Z,29.00
2018-06-29T10:35:08.816Z,29.00
2018-06-29T10:37:36.938Z,29.00
2018-06-29T10:40:05.250Z,28.80
2018-06-29T10:42:33.714Z,28.90
2018-06-29T10:45:01.927Z,29.20
2018-06-29T10:47:30.015Z,29.30
2018-06-29T10:49:58.173Z,29.10
2018-06-29T10:52:26.465Z,28.80
2018-06-29T10:54:54.898Z,29.10
2018-06-29T10:57:23.086Z,29.50
2018-06-29T10:59:51.213Z,29.50
2018-06-29T11:02:19.363Z,29.10
2018-06-29T11:04:47.585Z,29.30
2018-06-29T11:07:15.717Z,29.70
2018-06-29T11:09:43.838Z,29.60
2018-06-29T11:12:11.974Z,29.50
2018-06-29T11:14:41.116Z,29.60
2018-06-29T11:17:09.381Z,29.50
2018-06-29T11:19:37.544Z,29.80
2018-06-29T11:22:05.828Z,29.70
2018-06-29T11:24:33.944Z,29.10
2018-06-29T11:27:02.558Z,29.50
2018-06-29T11:29:30.680Z,29.80
2018-06-29T11:31:58.804Z,29.80
2018-06-29T11:34:26.941Z,29.70
2018-06-29T11:36:55.736Z,29.80
2018-06-29T11:39:23.858Z,30.10
2018-06-29T11:41:52.005Z,30.10
2018-06-29T11:44:20.130Z,29.80
2018-06-29T11:46:48.256Z,30.10
2018-06-29T11:49:16.457Z,30.00
2018-06-29T11:51:44.777Z,30.10
2018-06-29T11:54:12.893Z,30.80
2018-06-29T11:56:41.043Z,31.20
2018-06-29T11:59:09.157Z,30.80
2018-06-29T12:01:37.277Z,30.90
2018-06-29T12:04:05.424Z,30.40
2018-06-29T12:06:33.546Z,31.00
2018-06-29T12:09:01.664Z,31.00
2018-06-29T12:11:30.305Z,30.60
2018-06-29T12:13:58.570Z,30.10
2018-06-29T12:16:27.009Z,30.80
2018-06-29T12:18:55.137Z,31.20
2018-06-29T12:21:23.252Z,31.00
2018-06-29T12:23:51.369Z,30.80
2018-06-29T12:26:19.511Z,30.50
2018-06-29T12:28:47.640Z,30.70
2018-06-29T12:31:15.753Z,31.10
2018-06-29T12:33:43.960Z,31.40
2018-06-29T12:36:12.073Z,31.20
2018-06-29T12:38:40.219Z,30.80
2018-06-29T12:41:08.346Z,31.30
2018-06-29T12:43:36.469Z,31.10
2018-06-29T12:46:04.614Z,30.80
2018-06-29T12:48:32.737Z,30.60
2018-06-29T12:51:00.852Z,30.90
2018-06-29T12:53:28.980Z,31.40
2018-06-29T12:55:58.051Z,31.60
2018-06-29T12:58:26.260Z,30.80
2018-06-29T13:00:54.326Z,30.70
2018-06-29T13:03:22.448Z,31.00
2018-06-29T13:05:50.573Z,31.20
2018-06-29T13:08:18.684Z,30.80
2018-06-29T13:10:46.836Z,31.20
2018-06-29T13:13:14.957Z,31.30
2018-06-29T13:15:43.085Z,31.60
2018-06-29T13:18:12.030Z,32.20
2018-06-29T13:20:40.152Z,32.30
2018-06-29T13:23:08.293Z,32.20
2018-06-29T13:25:36.447Z,31.30
2018-06-29T13:28:04.764Z,31.00
2018-06-29T13:30:32.880Z,31.70
2018-06-29T13:33:01.001Z,32.10
2018-06-29T13:35:29.121Z,31.90
2018-06-29T13:37:57.249Z,32.10
2018-06-29T13:40:25.448Z,31.90
2018-06-29T13:42:53.590Z,31.70
2018-06-29T13:45:21.701Z,31.40
2018-06-29T13:47:49.848Z,31.40
2018-06-29T13:50:17.953Z,30.90
2018-06-29T13:52:46.081Z,30.90
2018-06-29T13:55:14.229Z,31.30
2018-06-29T13:57:42.357Z,31.30
2018-06-29T14:00:10.500Z,31.50
2018-06-29T14:02:39.109Z,31.50
2018-06-29T14:05:07.248Z,31.30
2018-06-29T14:07:35.359Z,31.10
2018-06-29T14:10:03.555Z,31.60
2018-06-29T14:12:31.681Z,31.30
2018-06-29T14:14:59.809Z,31.90
2018-06-29T14:17:27.961Z,32.20
2018-06-29T14:19:56.924Z,31.90
2018-06-29T14:22:25.062Z,32.80
2018-06-29T14:24:53.712Z,32.20
2018-06-29T14:27:21.847Z,31.50
2018-06-29T14:29:49.965Z,31.10
2018-06-29T14:32:18.097Z,31.30
2018-06-29T14:34:46.306Z,31.60
2018-06-29T14:37:14.369Z,31.60
2018-06-29T14:39:42.706Z,31.70
2018-06-29T14:42:10.825Z,31.70
2018-06-29T14:44:38.949Z,31.80
2018-06-29T14:47:07.153Z,31.30
2018-06-29T14:49:35.269Z,31.90
2018-06-29T14:52:03.429Z,32.10
2018-06-29T14:54:31.552Z,31.10
2018-06-29T14:56:59.667Z,30.90
2018-06-29T14:59:27.781Z,31.00
2018-06-29T15:01:55.912Z,31.00
2018-06-29T15:04:24.056Z,31.40
2018-06-29T15:06:52.185Z,31.00
2018-06-29T15:09:20.616Z,30.60
2018-06-29T15:11:48.743Z,30.30
2018-06-29T15:14:16.862Z,30.30
2018-06-29T15:16:45.030Z,30.20
2018-06-29T15:19:13.145Z,29.90
2018-06-29T15:21:41.627Z,30.30
2018-06-29T15:24:09.706Z,30.60
2018-06-29T15:26:37.825Z,30.40
2018-06-29T15:29:05.997Z,31.00
2018-06-29T15:31:34.237Z,30.70
2018-06-29T15:34:02.292Z,30.60
2018-06-29T15:36:30.412Z,30.50
2018-06-29T15:38:58.564Z,30.40
2018-06-29T15:41:26.690Z,30.10
2018-06-29T15:43:54.812Z,30.20
2018-06-29T15:46:22.949Z,30.20
2018-06-29T15:48:51.072Z,29.90
2018-06-29T15:51:19.220Z,29.80
2018-06-29T15:53:47.372Z,29.80
2018-06-29T15:56:15.495Z,30.00
2018-06-29T15:58:43.617Z,30.10
2018-06-29T16:01:11.769Z,30.00
2018-06-29T16:03:39.878Z,29.90
2018-06-29T16:06:07.993Z,29.80
2018-06-29T16:08:36.128Z,29.70
2018-06-29T16:11:04.272Z,29.50
2018-06-29T16:13:32.393Z,29.50
2018-06-29T16:16:02.198Z,29.60
2018-06-29T16:18:30.316Z,29.60
2018-06-29T16:20:58.436Z,29.70
2018-06-29T16:23:27.606Z,29.50
2018-06-29T16:26:02.326Z,29.60
2018-06-29T16:28:30.461Z,29.60
2018-06-29T16:30:58.577Z,29.70
2018-06-29T16:33:26.693Z,29.80
2018-06-29T16:35:55.332Z,29.60
2018-06-29T16:38:23.481Z,29.50
2018-06-29T16:40:51.625Z,29.40
2018-06-29T16:43:19.744Z,29.40
2018-06-29T16:45:47.881Z,29.40
2018-06-29T16:48:15.996Z,29.20
2018-06-29T16:50:44.204Z,29.20
2018-06-29T16:53:12.277Z,29.30
2018-06-29T16:55:40.409Z,29.30
2018-06-29T16:58:09.103Z,29.20
2018-06-29T17:00:37.225Z,29.30
2018-06-29T17:03:05.438Z,29.30
2018-06-29T17:05:33.592Z,29.30
2018-06-29T17:08:01.716Z,29.30
2018-06-29T17:10:29.835Z,29.30
2018-06-29T17:12:58.044Z,29.20
2018-06-29T17:15:26.176Z,29.10
2018-06-29T17:17:54.963Z,29.20
2018-06-29T17:20:23.167Z,29.20
2018-06-29T17:22:51.320Z,29.10
2018-06-29T17:25:29.901Z,29.00
2018-06-29T17:27:58.017Z,28.90
2018-06-29T17:30:26.150Z,28.90
2018-06-29T17:32:54.296Z,29.00
2018-06-29T17:35:22.417Z,28.90
2018-06-29T17:37:50.553Z,28.90
2018-06-29T17:40:19.213Z,28.90
2018-06-29T17:42:47.332Z,28.90
2018-06-29T17:45:15.576Z,28.80
2018-06-29T17:47:45.561Z,28.80
2018-06-29T17:50:13.745Z,28.90
2018-06-29T17:52:41.921Z,28.70
2018-06-29T17:55:10.106Z,28.60
2018-06-29T17:57:38.137Z,28.60
2018-06-29T18:00:06.947Z,28.50
2018-06-29T18:02:35.477Z,28.40
2018-06-29T18:05:03.609Z,28.40
2018-06-29T18:07:31.740Z,28.40
2018-06-29T18:09:59.940Z,28.40
2018-06-29T18:12:28.009Z,28.40
2018-06-29T18:14:56.152Z,28.20
2018-06-29T18:17:24.282Z,28.30
2018-06-29T18:19:53.066Z,28.20
2018-06-29T18:22:21.209Z,28.10
2018-06-29T18:24:49.433Z,28.00
2018-06-29T18:27:18.891Z,28.00
2018-06-29T18:29:47.084Z,28.00
2018-06-29T18:32:15.185Z,27.80
2018-06-29T18:34:43.311Z,27.90
2018-06-29T18:37:11.640Z,28.00
2018-06-29T18:39:39.763Z,27.90
2018-06-29T18:42:07.963Z,27.80
2018-06-29T18:44:36.305Z,27.80
2018-06-29T18:47:04.449Z,27.80
2018-06-29T18:49:32.577Z,27.80
2018-06-29T18:52:00.845Z,27.70
2018-06-29T18:54:28.973Z,27.70
2018-06-29T18:56:57.093Z,27.70
2018-06-29T18:59:25.302Z,27.60
2018-06-29T19:01:53.428Z,27.60
2018-06-29T19:04:21.569Z,27.50
2018-06-29T19:06:49.717Z,27.40
2018-06-29T19:09:17.857Z,27.40
2018-06-29T19:11:45.997Z,27.30
2018-06-29T19:14:14.141Z,27.30
2018-06-29T19:16:42.279Z,27.20
2018-06-29T19:19:10.402Z,27.20
2018-06-29T19:21:38.610Z,27.10
2018-06-29T19:24:06.738Z,26.90
2018-06-29T19:26:34.870Z,26.70
2018-06-29T19:29:04.061Z,26.70
2018-06-29T19:31:32.241Z,26.60
2018-06-29T19:34:00.360Z,26.60
2018-06-29T19:36:29.026Z,26.50
2018-06-29T19:38:57.177Z,26.40
2018-06-29T19:41:25.277Z,26.30
2018-06-29T19:43:53.443Z,26.20
2018-06-29T19:46:21.574Z,26.10
2018-06-29T19:48:49.696Z,26.00
2018-06-29T19:51:18.589Z,25.80
2018-06-29T19:53:46.714Z,25.50
2018-06-29T19:56:14.845Z,25.40
2018-06-29T19:58:43.146Z,25.40
2018-06-29T20:01:11.253Z,25.20
2018-06-29T20:03:39.397Z,25.30
2018-06-29T20:06:07.529Z,25.30
2018-06-29T20:08:35.654Z,25.30
2018-06-29T20:11:03.782Z,25.00
2018-06-29T20:13:32.434Z,25.10
2018-06-29T20:16:00.557Z,25.10
2018-06-29T20:18:28.676Z,25.00
2018-06-29T20:20:56.837Z,25.00
2018-06-29T20:23:24.963Z,24.90
2018-06-29T20:25:53.096Z,24.90
2018-06-29T20:28:21.241Z,24.70
2018-06-29T20:30:49.959Z,24.50
2018-06-29T20:33:18.373Z,24.60
2018-06-29T20:35:46.418Z,24.50
2018-06-29T20:38:14.608Z,24.40
2018-06-29T20:40:42.675Z,24.50
2018-06-29T20:43:10.802Z,24.30
2018-06-29T20:45:38.919Z,24.30
2018-06-29T20:48:07.074Z,24.30
2018-06-29T20:50:35.258Z,24.30
2018-06-29T20:53:03.465Z,24.30
2018-06-29T20:55:31.646Z,24.40
2018-06-29T20:57:59.841Z,24.10
2018-06-29T21:00:28.022Z,24.00
2018-06-29T21:02:56.148Z,24.00
2018-06-29T21:05:24.932Z,24.00
2018-06-29T21:07:53.031Z,24.00
2018-06-29T21:10:21.153Z,24.10
2018-06-29T21:12:49.292Z,23.90
2018-06-29T21:15:17.426Z,23.80
2018-06-29T21:17:45.579Z,23.80
2018-06-29T21:20:14.197Z,23.90
2018-06-29T21:22:42.457Z,23.80
2018-06-29T21:25:10.658Z,23.80
2018-06-29T21:27:38.774Z,23.80
2018-06-29T21:30:07.437Z,23.70
2018-06-29T21:32:35.742Z,23.60
2018-06-29T21:35:04.198Z,23.70
2018-06-29T21:37:32.325Z,23.70
2018-06-29T21:40:00.506Z,23.60
2018-06-29T21:42:30.470Z,23.50
2018-06-29T21:44:58.639Z,23.50
2018-06-29T21:47:26.734Z,23.50
2018-06-29T21:49:54.934Z,23.50
2018-06-29T21:52:23.095Z,23.40
2018-06-29T21:54:51.243Z,23.40
2018-06-29T21:57:19.386Z,23.40
2018-06-29T21:59:47.506Z,23.30
2018-06-29T22:04:49.726Z,23.40
2018-06-29T22:07:17.821Z,23.40
2018-06-29T22:09:45.989Z,23.20
2018-06-29T22:12:14.161Z,23.20
2018-06-29T22:14:42.294Z,23.20
2018-06-29T22:17:10.521Z,23.20
2018-06-29T22:19:38.687Z,23.20
2018-06-29T22:22:06.830Z,23.30
2018-06-29T22:24:35.053Z,23.20
2018-06-29T22:27:03.456Z,23.20
2018-06-29T22:29:31.575Z,23.10
2018-06-29T22:31:59.694Z,23.10
2018-06-29T22:34:28.844Z,23.20
2018-06-29T22:36:57.132Z,23.20
2018-06-29T22:39:25.256Z,23.10
2018-06-29T22:41:53.388Z,23.00
2018-06-29T22:44:21.502Z,23.00
2018-06-29T22:46:49.621Z,22.90
2018-06-29T22:49:17.785Z,22.90
2018-06-29T22:51:45.908Z,22.90
2018-06-29T22:54:14.042Z,22.80
2018-06-29T22:56:42.181Z,22.70
2018-06-29T22:59:10.301Z,22.70
2018-06-29T23:01:38.429Z,22.70
2018-06-29T23:04:06.570Z,22.80
2018-06-29T23:06:41.105Z,22.90
2018-06-29T23:09:09.609Z,22.70
2018-06-29T23:11:37.725Z,22.70
2018-06-29T23:14:05.897Z,22.60
2018-06-29T23:16:34.084Z,22.60
2018-06-29T23:19:02.207Z,22.60
2018-06-29T23:21:30.313Z,22.70
2018-06-29T23:23:58.482Z,22.80
2018-06-29T23:26:26.608Z,22.70
2018-06-29T23:28:54.720Z,22.70
2018-06-29T23:31:22.900Z,22.60
2018-06-29T23:33:51.013Z,22.60
2018-06-29T23:36:29.337Z,22.60
2018-06-29T23:38:57.648Z,22.60
2018-06-29T23:41:25.862Z,22.60
2018-06-29T23:43:54.174Z,22.60
2018-06-29T23:46:22.303Z,22.60
2018-06-29T23:48:50.444Z,22.50
2018-06-29T23:51:18.585Z,22.50
2018-06-29T23:53:46.704Z,22.50
2018-06-29T23:56:14.829Z,22.50
2018-06-29T23:58:42.964Z,22.40
